sensor_id;sensor_type;location;lat;lon;timestamp;temperature;humidity
40257;DHT22;25977;45.462;9.210;2023-05-17T00:02:01;18.10;83.50
40257;DHT22;25977;45.462;9.210;2023-05-17T00:04:28;18.00;83.90
40257;DHT22;25977;45.462;9.210;2023-05-17T00:06:53;18.00;84.10
40257;DHT22;25977;45.462;9.210;2023-05-17T00:09:19;18.00;84.20
40257;DHT22;25977;45.462;9.210;2023-05-17T00:11:45;18.00;84.30
40257;DHT22;25977;45.462;9.210;2023-05-17T00:14:11;18.10;84.30
40257;DHT22;25977;45.462;9.210;2023-05-17T00:16:36;18.10;84.30
40257;DHT22;25977;45.462;9.210;2023-05-17T00:19:02;18.00;84.30
40257;DHT22;25977;45.462;9.210;2023-05-17T00:21:28;18.00;84.30
40257;DHT22;25977;45.462;9.210;2023-05-17T00:23:54;18.00;84.60
40257;DHT22;25977;45.462;9.210;2023-05-17T00:26:19;18.10;84.20
40257;DHT22;25977;45.462;9.210;2023-05-17T00:28:46;18.00;84.30
40257;DHT22;25977;45.462;9.210;2023-05-17T00:31:13;18.00;84.40
40257;DHT22;25977;45.462;9.210;2023-05-17T00:33:39;18.00;84.40
40257;DHT22;25977;45.462;9.210;2023-05-17T00:36:04;18.00;84.50
40257;DHT22;25977;45.462;9.210;2023-05-17T00:38:30;18.00;84.50
40257;DHT22;25977;45.462;9.210;2023-05-17T00:40:56;18.00;84.70
40257;DHT22;25977;45.462;9.210;2023-05-17T00:43:22;18.00;84.70
40257;DHT22;25977;45.462;9.210;2023-05-17T00:45:47;18.00;84.70
40257;DHT22;25977;45.462;9.210;2023-05-17T00:48:14;18.00;84.70
40257;DHT22;25977;45.462;9.210;2023-05-17T00:50:40;18.00;84.80
40257;DHT22;25977;45.462;9.210;2023-05-17T00:53:06;17.90;84.80
40257;DHT22;25977;45.462;9.210;2023-05-17T00:55:34;18.00;84.90
40257;DHT22;25977;45.462;9.210;2023-05-17T00:57:59;17.90;84.70
40257;DHT22;25977;45.462;9.210;2023-05-17T01:00:25;17.90;84.70
40257;DHT22;25977;45.462;9.210;2023-05-17T01:02:51;17.90;84.80
40257;DHT22;25977;45.462;9.210;2023-05-17T01:05:17;17.90;84.90
40257;DHT22;25977;45.462;9.210;2023-05-17T01:07:43;17.90;84.80
40257;DHT22;25977;45.462;9.210;2023-05-17T01:10:09;17.90;84.80
40257;DHT22;25977;45.462;9.210;2023-05-17T01:15:14;17.90;84.90
40257;DHT22;25977;45.462;9.210;2023-05-17T01:18:08;17.90;85.00
40257;DHT22;25977;45.462;9.210;2023-05-17T01:20:42;17.90;85.60
40257;DHT22;25977;45.462;9.210;2023-05-17T01:23:43;17.90;85.10
40257;DHT22;25977;45.462;9.210;2023-05-17T01:26:13;17.90;84.80
40257;DHT22;25977;45.462;9.210;2023-05-17T01:28:39;17.80;84.80
40257;DHT22;25977;45.462;9.210;2023-05-17T01:31:07;17.90;84.90
40257;DHT22;25977;45.462;9.210;2023-05-17T01:33:36;17.90;84.80
40257;DHT22;25977;45.462;9.210;2023-05-17T01:36:02;17.90;85.00
40257;DHT22;25977;45.462;9.210;2023-05-17T01:38:28;17.90;84.90
40257;DHT22;25977;45.462;9.210;2023-05-17T01:41:15;17.90;85.20
40257;DHT22;25977;45.462;9.210;2023-05-17T01:44:02;17.90;85.40
40257;DHT22;25977;45.462;9.210;2023-05-17T01:46:42;17.80;85.30
40257;DHT22;25977;45.462;9.210;2023-05-17T01:49:24;17.90;85.50
40257;DHT22;25977;45.462;9.210;2023-05-17T01:52:00;17.90;85.80
40257;DHT22;25977;45.462;9.210;2023-05-17T01:54:31;17.90;86.00
40257;DHT22;25977;45.462;9.210;2023-05-17T01:56:59;17.90;86.10
40257;DHT22;25977;45.462;9.210;2023-05-17T01:59:30;17.80;86.20
40257;DHT22;25977;45.462;9.210;2023-05-17T02:02:00;17.80;86.40
40257;DHT22;25977;45.462;9.210;2023-05-17T02:04:30;17.80;86.50
40257;DHT22;25977;45.462;9.210;2023-05-17T02:06:59;17.70;86.60
40257;DHT22;25977;45.462;9.210;2023-05-17T02:09:24;17.70;86.60
40257;DHT22;25977;45.462;9.210;2023-05-17T02:11:50;17.70;86.40
40257;DHT22;25977;45.462;9.210;2023-05-17T02:14:16;17.70;86.30
40257;DHT22;25977;45.462;9.210;2023-05-17T02:16:41;17.70;86.30
40257;DHT22;25977;45.462;9.210;2023-05-17T02:19:07;17.70;86.30
40257;DHT22;25977;45.462;9.210;2023-05-17T02:21:34;17.80;86.40
40257;DHT22;25977;45.462;9.210;2023-05-17T02:24:01;17.80;86.50
40257;DHT22;25977;45.462;9.210;2023-05-17T02:26:27;17.80;86.50
40257;DHT22;25977;45.462;9.210;2023-05-17T02:28:55;17.70;86.40
40257;DHT22;25977;45.462;9.210;2023-05-17T02:31:22;17.80;86.60
40257;DHT22;25977;45.462;9.210;2023-05-17T02:33:54;17.70;86.50
40257;DHT22;25977;45.462;9.210;2023-05-17T02:36:21;17.70;87.00
40257;DHT22;25977;45.462;9.210;2023-05-17T02:38:47;17.80;86.50
40257;DHT22;25977;45.462;9.210;2023-05-17T02:41:13;17.70;86.50
40257;DHT22;25977;45.462;9.210;2023-05-17T02:43:38;17.80;86.50
40257;DHT22;25977;45.462;9.210;2023-05-17T02:46:04;17.80;86.50
40257;DHT22;25977;45.462;9.210;2023-05-17T02:48:30;17.80;86.50
40257;DHT22;25977;45.462;9.210;2023-05-17T02:50:56;17.80;86.50
40257;DHT22;25977;45.462;9.210;2023-05-17T02:53:21;17.80;86.30
40257;DHT22;25977;45.462;9.210;2023-05-17T02:55:47;17.80;86.10
40257;DHT22;25977;45.462;9.210;2023-05-17T02:58:13;17.80;85.70
40257;DHT22;25977;45.462;9.210;2023-05-17T03:00:38;17.80;85.30
40257;DHT22;25977;45.462;9.210;2023-05-17T03:03:04;17.80;85.10
40257;DHT22;25977;45.462;9.210;2023-05-17T03:05:32;17.80;84.90
40257;DHT22;25977;45.462;9.210;2023-05-17T03:07:58;17.80;84.70
40257;DHT22;25977;45.462;9.210;2023-05-17T03:10:23;17.80;84.50
40257;DHT22;25977;45.462;9.210;2023-05-17T03:12:49;17.80;84.40
40257;DHT22;25977;45.462;9.210;2023-05-17T03:15:18;17.90;84.30
40257;DHT22;25977;45.462;9.210;2023-05-17T03:17:44;17.80;84.20
40257;DHT22;25977;45.462;9.210;2023-05-17T03:20:11;17.80;84.20
40257;DHT22;25977;45.462;9.210;2023-05-17T03:22:36;17.90;84.20
40257;DHT22;25977;45.462;9.210;2023-05-17T03:25:02;17.80;84.10
40257;DHT22;25977;45.462;9.210;2023-05-17T03:27:29;17.80;84.10
40257;DHT22;25977;45.462;9.210;2023-05-17T03:29:55;17.90;84.00
40257;DHT22;25977;45.462;9.210;2023-05-17T03:32:22;17.90;83.80
40257;DHT22;25977;45.462;9.210;2023-05-17T03:34:48;17.80;83.70
40257;DHT22;25977;45.462;9.210;2023-05-17T03:37:14;17.80;83.60
40257;DHT22;25977;45.462;9.210;2023-05-17T03:39:40;17.90;83.50
40257;DHT22;25977;45.462;9.210;2023-05-17T03:42:06;17.80;83.40
40257;DHT22;25977;45.462;9.210;2023-05-17T03:44:32;17.80;83.30
40257;DHT22;25977;45.462;9.210;2023-05-17T03:46:58;17.80;83.20
40257;DHT22;25977;45.462;9.210;2023-05-17T03:49:24;17.80;83.10
40257;DHT22;25977;45.462;9.210;2023-05-17T03:51:51;17.80;83.10
40257;DHT22;25977;45.462;9.210;2023-05-17T03:54:17;17.80;83.20
40257;DHT22;25977;45.462;9.210;2023-05-17T03:56:43;17.80;83.20
40257;DHT22;25977;45.462;9.210;2023-05-17T03:59:13;17.80;83.10
40257;DHT22;25977;45.462;9.210;2023-05-17T04:01:39;17.80;83.10
40257;DHT22;25977;45.462;9.210;2023-05-17T04:04:07;17.80;83.00
40257;DHT22;25977;45.462;9.210;2023-05-17T04:06:32;17.80;83.00
40257;DHT22;25977;45.462;9.210;2023-05-17T04:08:58;17.80;82.80
40257;DHT22;25977;45.462;9.210;2023-05-17T04:11:25;17.80;82.80
40257;DHT22;25977;45.462;9.210;2023-05-17T04:13:53;17.80;82.80
40257;DHT22;25977;45.462;9.210;2023-05-17T04:16:20;17.80;83.00
40257;DHT22;25977;45.462;9.210;2023-05-17T04:18:46;17.70;85.30
40257;DHT22;25977;45.462;9.210;2023-05-17T04:21:12;17.70;85.80
40257;DHT22;25977;45.462;9.210;2023-05-17T04:23:38;17.70;86.20
40257;DHT22;25977;45.462;9.210;2023-05-17T04:26:04;17.70;86.40
40257;DHT22;25977;45.462;9.210;2023-05-17T04:28:32;17.70;86.50
40257;DHT22;25977;45.462;9.210;2023-05-17T04:30:59;17.70;86.60
40257;DHT22;25977;45.462;9.210;2023-05-17T04:33:25;17.70;86.70
40257;DHT22;25977;45.462;9.210;2023-05-17T04:35:55;17.70;86.80
40257;DHT22;25977;45.462;9.210;2023-05-17T04:38:22;17.60;87.20
40257;DHT22;25977;45.462;9.210;2023-05-17T04:40:49;17.60;87.40
40257;DHT22;25977;45.462;9.210;2023-05-17T04:43:15;17.50;87.70
40257;DHT22;25977;45.462;9.210;2023-05-17T04:45:41;17.50;87.80
40257;DHT22;25977;45.462;9.210;2023-05-17T04:48:08;17.50;88.00
40257;DHT22;25977;45.462;9.210;2023-05-17T04:50:34;17.50;88.30
40257;DHT22;25977;45.462;9.210;2023-05-17T04:53:00;17.50;88.20
40257;DHT22;25977;45.462;9.210;2023-05-17T04:55:27;17.50;88.10
40257;DHT22;25977;45.462;9.210;2023-05-17T04:57:52;17.50;88.20
40257;DHT22;25977;45.462;9.210;2023-05-17T05:00:19;17.50;88.10
40257;DHT22;25977;45.462;9.210;2023-05-17T05:02:54;17.30;88.40
40257;DHT22;25977;45.462;9.210;2023-05-17T05:05:21;17.40;88.80
40257;DHT22;25977;45.462;9.210;2023-05-17T05:07:49;17.50;88.60
40257;DHT22;25977;45.462;9.210;2023-05-17T05:10:16;17.40;88.50
40257;DHT22;25977;45.462;9.210;2023-05-17T05:12:42;17.50;88.60
40257;DHT22;25977;45.462;9.210;2023-05-17T05:15:09;17.40;88.60
40257;DHT22;25977;45.462;9.210;2023-05-17T05:17:37;17.50;88.60
40257;DHT22;25977;45.462;9.210;2023-05-17T05:20:03;17.50;88.50
40257;DHT22;25977;45.462;9.210;2023-05-17T05:22:29;17.30;88.90
40257;DHT22;25977;45.462;9.210;2023-05-17T05:24:55;17.20;89.00
40257;DHT22;25977;45.462;9.210;2023-05-17T05:27:21;17.10;89.70
40257;DHT22;25977;45.462;9.210;2023-05-17T05:29:47;17.20;89.50
40257;DHT22;25977;45.462;9.210;2023-05-17T05:32:12;17.30;89.50
40257;DHT22;25977;45.462;9.210;2023-05-17T05:34:43;17.30;89.30
40257;DHT22;25977;45.462;9.210;2023-05-17T05:37:09;17.20;89.60
40257;DHT22;25977;45.462;9.210;2023-05-17T05:39:36;17.30;89.40
40257;DHT22;25977;45.462;9.210;2023-05-17T05:42:01;17.40;89.20
40257;DHT22;25977;45.462;9.210;2023-05-17T05:44:29;17.40;89.00
40257;DHT22;25977;45.462;9.210;2023-05-17T05:46:56;17.50;88.90
40257;DHT22;25977;45.462;9.210;2023-05-17T05:49:22;17.50;88.80
40257;DHT22;25977;45.462;9.210;2023-05-17T05:51:48;17.50;88.80
40257;DHT22;25977;45.462;9.210;2023-05-17T05:54:15;17.60;88.60
40257;DHT22;25977;45.462;9.210;2023-05-17T05:56:41;17.60;88.60
40257;DHT22;25977;45.462;9.210;2023-05-17T05:59:09;17.50;88.40
40257;DHT22;25977;45.462;9.210;2023-05-17T06:01:36;17.50;88.40
40257;DHT22;25977;45.462;9.210;2023-05-17T06:04:02;17.50;88.60
40257;DHT22;25977;45.462;9.210;2023-05-17T06:06:28;17.50;88.50
40257;DHT22;25977;45.462;9.210;2023-05-17T06:08:54;17.50;88.50
40257;DHT22;25977;45.462;9.210;2023-05-17T06:11:20;17.30;89.00
40257;DHT22;25977;45.462;9.210;2023-05-17T06:13:46;17.30;89.30
40257;DHT22;25977;45.462;9.210;2023-05-17T06:16:12;17.30;89.60
40257;DHT22;25977;45.462;9.210;2023-05-17T06:18:37;17.30;89.40
40257;DHT22;25977;45.462;9.210;2023-05-17T06:21:03;17.40;89.60
40257;DHT22;25977;45.462;9.210;2023-05-17T06:23:29;17.30;89.80
40257;DHT22;25977;45.462;9.210;2023-05-17T06:25:55;17.30;89.80
40257;DHT22;25977;45.462;9.210;2023-05-17T06:28:21;17.40;89.80
40257;DHT22;25977;45.462;9.210;2023-05-17T06:30:46;17.20;89.70
40257;DHT22;25977;45.462;9.210;2023-05-17T06:33:12;17.40;89.70
40257;DHT22;25977;45.462;9.210;2023-05-17T06:35:38;17.40;89.70
40257;DHT22;25977;45.462;9.210;2023-05-17T06:38:03;17.30;89.80
40257;DHT22;25977;45.462;9.210;2023-05-17T06:40:29;17.30;89.80
40257;DHT22;25977;45.462;9.210;2023-05-17T06:42:55;17.40;89.80
40257;DHT22;25977;45.462;9.210;2023-05-17T06:45:20;17.50;89.90
40257;DHT22;25977;45.462;9.210;2023-05-17T06:47:46;17.40;89.70
40257;DHT22;25977;45.462;9.210;2023-05-17T06:50:12;17.30;89.80
40257;DHT22;25977;45.462;9.210;2023-05-17T06:52:38;17.20;89.10
40257;DHT22;25977;45.462;9.210;2023-05-17T06:55:04;17.20;89.50
40257;DHT22;25977;45.462;9.210;2023-05-17T06:57:30;17.10;89.30
40257;DHT22;25977;45.462;9.210;2023-05-17T06:59:56;16.90;90.00
40257;DHT22;25977;45.462;9.210;2023-05-17T07:02:21;17.00;90.00
40257;DHT22;25977;45.462;9.210;2023-05-17T07:04:47;16.80;89.80
40257;DHT22;25977;45.462;9.210;2023-05-17T07:07:13;16.70;89.70
40257;DHT22;25977;45.462;9.210;2023-05-17T07:09:38;16.80;90.00
40257;DHT22;25977;45.462;9.210;2023-05-17T07:12:05;16.80;90.00
40257;DHT22;25977;45.462;9.210;2023-05-17T07:14:31;16.90;90.10
40257;DHT22;25977;45.462;9.210;2023-05-17T07:16:56;17.00;90.10
40257;DHT22;25977;45.462;9.210;2023-05-17T07:19:22;17.10;90.00
40257;DHT22;25977;45.462;9.210;2023-05-17T07:21:51;17.20;89.70
40257;DHT22;25977;45.462;9.210;2023-05-17T07:24:16;17.20;89.50
40257;DHT22;25977;45.462;9.210;2023-05-17T07:26:42;17.30;89.50
40257;DHT22;25977;45.462;9.210;2023-05-17T07:29:08;16.80;90.00
40257;DHT22;25977;45.462;9.210;2023-05-17T07:31:34;16.80;90.20
40257;DHT22;25977;45.462;9.210;2023-05-17T07:33:59;17.00;90.00
40257;DHT22;25977;45.462;9.210;2023-05-17T07:36:25;17.10;89.70
40257;DHT22;25977;45.462;9.210;2023-05-17T07:38:58;17.10;89.80
40257;DHT22;25977;45.462;9.210;2023-05-17T07:41:23;17.10;89.60
40257;DHT22;25977;45.462;9.210;2023-05-17T07:43:50;16.90;90.00
40257;DHT22;25977;45.462;9.210;2023-05-17T07:46:16;16.90;89.90
40257;DHT22;25977;45.462;9.210;2023-05-17T07:48:42;16.70;90.20
40257;DHT22;25977;45.462;9.210;2023-05-17T07:51:08;16.60;90.30
40257;DHT22;25977;45.462;9.210;2023-05-17T07:53:33;16.50;90.70
40257;DHT22;25977;45.462;9.210;2023-05-17T07:55:59;16.50;90.60
40257;DHT22;25977;45.462;9.210;2023-05-17T07:58:25;16.60;90.70
40257;DHT22;25977;45.462;9.210;2023-05-17T08:00:50;16.80;90.50
40257;DHT22;25977;45.462;9.210;2023-05-17T08:03:16;16.90;90.40
40257;DHT22;25977;45.462;9.210;2023-05-17T08:05:42;17.00;90.20
40257;DHT22;25977;45.462;9.210;2023-05-17T08:08:07;17.10;90.10
40257;DHT22;25977;45.462;9.210;2023-05-17T08:10:33;17.10;90.00
40257;DHT22;25977;45.462;9.210;2023-05-17T08:13:02;16.80;90.00
40257;DHT22;25977;45.462;9.210;2023-05-17T08:15:29;16.90;90.10
40257;DHT22;25977;45.462;9.210;2023-05-17T08:17:55;16.80;90.00
40257;DHT22;25977;45.462;9.210;2023-05-17T08:20:20;16.90;90.00
40257;DHT22;25977;45.462;9.210;2023-05-17T08:22:46;17.10;90.00
40257;DHT22;25977;45.462;9.210;2023-05-17T08:25:12;17.10;90.00
40257;DHT22;25977;45.462;9.210;2023-05-17T08:27:37;17.10;89.70
40257;DHT22;25977;45.462;9.210;2023-05-17T08:30:03;17.10;89.60
40257;DHT22;25977;45.462;9.210;2023-05-17T08:32:29;17.00;90.00
40257;DHT22;25977;45.462;9.210;2023-05-17T08:34:55;17.10;90.00
40257;DHT22;25977;45.462;9.210;2023-05-17T08:37:22;17.10;89.90
40257;DHT22;25977;45.462;9.210;2023-05-17T08:39:47;17.20;89.70
40257;DHT22;25977;45.462;9.210;2023-05-17T08:42:20;17.20;89.40
40257;DHT22;25977;45.462;9.210;2023-05-17T08:44:46;17.30;89.70
40257;DHT22;25977;45.462;9.210;2023-05-17T08:47:13;17.30;89.50
40257;DHT22;25977;45.462;9.210;2023-05-17T08:49:51;17.30;89.40
40257;DHT22;25977;45.462;9.210;2023-05-17T08:52:17;17.30;89.30
40257;DHT22;25977;45.462;9.210;2023-05-17T08:54:43;17.40;89.10
40257;DHT22;25977;45.462;9.210;2023-05-17T08:57:09;17.40;89.20
40257;DHT22;25977;45.462;9.210;2023-05-17T08:59:37;17.40;89.40
40257;DHT22;25977;45.462;9.210;2023-05-17T09:02:04;17.40;89.90
40257;DHT22;25977;45.462;9.210;2023-05-17T09:04:30;17.30;89.90
40257;DHT22;25977;45.462;9.210;2023-05-17T09:06:56;17.30;89.80
40257;DHT22;25977;45.462;9.210;2023-05-17T09:09:22;17.30;89.80
40257;DHT22;25977;45.462;9.210;2023-05-17T09:11:48;17.40;89.60
40257;DHT22;25977;45.462;9.210;2023-05-17T09:14:15;17.40;89.60
40257;DHT22;25977;45.462;9.210;2023-05-17T09:16:43;17.40;90.00
40257;DHT22;25977;45.462;9.210;2023-05-17T09:19:14;17.50;90.00
40257;DHT22;25977;45.462;9.210;2023-05-17T09:21:44;17.30;89.20
40257;DHT22;25977;45.462;9.210;2023-05-17T09:24:10;17.50;88.70
40257;DHT22;25977;45.462;9.210;2023-05-17T09:26:41;17.50;88.00
40257;DHT22;25977;45.462;9.210;2023-05-17T09:29:11;17.50;87.60
40257;DHT22;25977;45.462;9.210;2023-05-17T09:31:38;17.50;88.10
40257;DHT22;25977;45.462;9.210;2023-05-17T09:34:04;17.60;87.80
40257;DHT22;25977;45.462;9.210;2023-05-17T09:36:34;17.70;87.60
40257;DHT22;25977;45.462;9.210;2023-05-17T09:39:02;17.70;87.30
40257;DHT22;25977;45.462;9.210;2023-05-17T09:41:33;17.80;87.40
40257;DHT22;25977;45.462;9.210;2023-05-17T09:44:09;17.80;87.60
40257;DHT22;25977;45.462;9.210;2023-05-17T09:46:36;17.80;87.30
40257;DHT22;25977;45.462;9.210;2023-05-17T09:49:03;17.90;87.20
40257;DHT22;25977;45.462;9.210;2023-05-17T09:51:33;18.00;87.30
40257;DHT22;25977;45.462;9.210;2023-05-17T09:53:59;18.00;86.80
40257;DHT22;25977;45.462;9.210;2023-05-17T09:56:30;18.00;86.10
40257;DHT22;25977;45.462;9.210;2023-05-17T09:59:00;18.00;85.90
40257;DHT22;25977;45.462;9.210;2023-05-17T10:01:27;18.00;85.80
40257;DHT22;25977;45.462;9.210;2023-05-17T10:03:54;18.00;85.90
40257;DHT22;25977;45.462;9.210;2023-05-17T10:06:24;18.00;85.90
40257;DHT22;25977;45.462;9.210;2023-05-17T10:08:52;18.00;86.00
40257;DHT22;25977;45.462;9.210;2023-05-17T10:11:33;18.10;85.30
40257;DHT22;25977;45.462;9.210;2023-05-17T10:14:16;18.10;85.00
40257;DHT22;25977;45.462;9.210;2023-05-17T10:16:43;18.10;85.20
40257;DHT22;25977;45.462;9.210;2023-05-17T10:19:10;18.10;85.60
40257;DHT22;25977;45.462;9.210;2023-05-17T10:21:36;18.10;85.50
40257;DHT22;25977;45.462;9.210;2023-05-17T10:24:04;18.10;85.30
40257;DHT22;25977;45.462;9.210;2023-05-17T10:26:31;18.20;85.30
40257;DHT22;25977;45.462;9.210;2023-05-17T10:28:59;18.20;85.20
40257;DHT22;25977;45.462;9.210;2023-05-17T10:31:31;18.20;85.40
40257;DHT22;25977;45.462;9.210;2023-05-17T10:34:01;18.20;85.70
40257;DHT22;25977;45.462;9.210;2023-05-17T10:36:28;18.20;85.60
40257;DHT22;25977;45.462;9.210;2023-05-17T10:38:54;18.20;85.40
40257;DHT22;25977;45.462;9.210;2023-05-17T10:41:23;18.20;85.30
40257;DHT22;25977;45.462;9.210;2023-05-17T10:43:51;18.20;85.40
40257;DHT22;25977;45.462;9.210;2023-05-17T10:46:18;18.30;85.30
40257;DHT22;25977;45.462;9.210;2023-05-17T10:48:52;18.30;85.00
40257;DHT22;25977;45.462;9.210;2023-05-17T10:51:25;18.40;85.10
40257;DHT22;25977;45.462;9.210;2023-05-17T10:54:03;18.40;85.00
40257;DHT22;25977;45.462;9.210;2023-05-17T10:56:30;18.40;85.10
40257;DHT22;25977;45.462;9.210;2023-05-17T10:59:21;18.40;85.10
40257;DHT22;25977;45.462;9.210;2023-05-17T11:04:26;18.50;84.70
40257;DHT22;25977;45.462;9.210;2023-05-17T11:06:54;18.60;84.10
40257;DHT22;25977;45.462;9.210;2023-05-17T11:09:40;18.60;84.10
40257;DHT22;25977;45.462;9.210;2023-05-17T11:12:07;18.60;84.30
40257;DHT22;25977;45.462;9.210;2023-05-17T11:14:52;18.60;84.50
40257;DHT22;25977;45.462;9.210;2023-05-17T11:17:23;18.50;84.10
40257;DHT22;25977;45.462;9.210;2023-05-17T11:20:01;18.60;83.90
40257;DHT22;25977;45.462;9.210;2023-05-17T11:22:37;18.50;84.00
40257;DHT22;25977;45.462;9.210;2023-05-17T11:25:07;18.50;83.90
40257;DHT22;25977;45.462;9.210;2023-05-17T11:32:45;18.60;83.70
40257;DHT22;25977;45.462;9.210;2023-05-17T11:35:11;18.50;83.80
40257;DHT22;25977;45.462;9.210;2023-05-17T11:37:37;18.60;83.80
40257;DHT22;25977;45.462;9.210;2023-05-17T11:40:07;18.60;83.50
40257;DHT22;25977;45.462;9.210;2023-05-17T11:42:34;18.60;83.50
40257;DHT22;25977;45.462;9.210;2023-05-17T11:45:04;18.70;83.60
40257;DHT22;25977;45.462;9.210;2023-05-17T11:47:31;18.70;83.50
40257;DHT22;25977;45.462;9.210;2023-05-17T11:50:02;18.50;83.90
40257;DHT22;25977;45.462;9.210;2023-05-17T11:52:28;18.40;83.60
40257;DHT22;25977;45.462;9.210;2023-05-17T11:54:56;18.30;83.70
40257;DHT22;25977;45.462;9.210;2023-05-17T11:57:28;18.40;83.90
40257;DHT22;25977;45.462;9.210;2023-05-17T11:59:59;18.50;83.60
40257;DHT22;25977;45.462;9.210;2023-05-17T12:02:30;18.50;83.60
40257;DHT22;25977;45.462;9.210;2023-05-17T12:04:56;18.50;83.50
40257;DHT22;25977;45.462;9.210;2023-05-17T12:07:23;18.60;83.70
40257;DHT22;25977;45.462;9.210;2023-05-17T12:09:51;18.60;83.70
40257;DHT22;25977;45.462;9.210;2023-05-17T12:12:18;18.60;83.80
40257;DHT22;25977;45.462;9.210;2023-05-17T12:14:46;18.60;83.80
40257;DHT22;25977;45.462;9.210;2023-05-17T12:17:26;18.70;83.90
40257;DHT22;25977;45.462;9.210;2023-05-17T12:19:53;18.70;83.60
40257;DHT22;25977;45.462;9.210;2023-05-17T12:22:19;18.70;83.60
40257;DHT22;25977;45.462;9.210;2023-05-17T12:24:45;18.60;83.60
40257;DHT22;25977;45.462;9.210;2023-05-17T12:27:10;18.70;83.90
40257;DHT22;25977;45.462;9.210;2023-05-17T12:29:37;18.70;83.80
40257;DHT22;25977;45.462;9.210;2023-05-17T12:32:04;18.70;83.70
40257;DHT22;25977;45.462;9.210;2023-05-17T12:34:31;18.70;83.50
40257;DHT22;25977;45.462;9.210;2023-05-17T12:36:57;18.80;83.30
40257;DHT22;25977;45.462;9.210;2023-05-17T12:39:23;18.80;83.40
40257;DHT22;25977;45.462;9.210;2023-05-17T12:41:50;18.70;83.10
40257;DHT22;25977;45.462;9.210;2023-05-17T12:44:16;18.80;83.10
40257;DHT22;25977;45.462;9.210;2023-05-17T12:46:43;18.80;83.10
40257;DHT22;25977;45.462;9.210;2023-05-17T12:49:10;18.90;83.00
40257;DHT22;25977;45.462;9.210;2023-05-17T12:51:43;18.90;82.90
40257;DHT22;25977;45.462;9.210;2023-05-17T12:56:48;18.90;82.70
40257;DHT22;25977;45.462;9.210;2023-05-17T12:59:15;18.90;82.70
40257;DHT22;25977;45.462;9.210;2023-05-17T13:01:52;18.90;82.60
40257;DHT22;25977;45.462;9.210;2023-05-17T13:04:28;19.00;82.20
40257;DHT22;25977;45.462;9.210;2023-05-17T13:06:56;19.00;82.10
40257;DHT22;25977;45.462;9.210;2023-05-17T13:09:23;18.90;81.90
40257;DHT22;25977;45.462;9.210;2023-05-17T13:11:51;18.90;82.10
40257;DHT22;25977;45.462;9.210;2023-05-17T13:17:07;19.00;81.90
40257;DHT22;25977;45.462;9.210;2023-05-17T13:19:33;19.10;81.90
40257;DHT22;25977;45.462;9.210;2023-05-17T13:22:00;19.20;81.90
40257;DHT22;25977;45.462;9.210;2023-05-17T13:24:26;19.20;81.90
40257;DHT22;25977;45.462;9.210;2023-05-17T13:26:55;19.20;81.90
40257;DHT22;25977;45.462;9.210;2023-05-17T13:29:20;19.20;82.00
40257;DHT22;25977;45.462;9.210;2023-05-17T13:31:46;19.30;82.10
40257;DHT22;25977;45.462;9.210;2023-05-17T13:34:12;19.30;82.00
40257;DHT22;25977;45.462;9.210;2023-05-17T13:36:38;19.30;82.10
40257;DHT22;25977;45.462;9.210;2023-05-17T13:39:04;19.30;81.70
40257;DHT22;25977;45.462;9.210;2023-05-17T13:41:29;19.40;81.80
40257;DHT22;25977;45.462;9.210;2023-05-17T13:43:55;19.40;81.60
40257;DHT22;25977;45.462;9.210;2023-05-17T13:46:22;19.50;81.50
40257;DHT22;25977;45.462;9.210;2023-05-17T13:48:47;19.50;81.40
40257;DHT22;25977;45.462;9.210;2023-05-17T13:51:14;19.50;81.00
40257;DHT22;25977;45.462;9.210;2023-05-17T13:53:39;19.50;80.80
40257;DHT22;25977;45.462;9.210;2023-05-17T13:56:06;19.60;80.50
40257;DHT22;25977;45.462;9.210;2023-05-17T13:58:32;19.60;80.30
40257;DHT22;25977;45.462;9.210;2023-05-17T14:00:58;19.60;80.20
40257;DHT22;25977;45.462;9.210;2023-05-17T14:03:23;19.60;80.10
40257;DHT22;25977;45.462;9.210;2023-05-17T14:05:49;19.70;79.50
40257;DHT22;25977;45.462;9.210;2023-05-17T14:08:17;19.70;79.20
40257;DHT22;25977;45.462;9.210;2023-05-17T14:10:43;19.70;78.50
40257;DHT22;25977;45.462;9.210;2023-05-17T14:13:09;19.70;78.20
40257;DHT22;25977;45.462;9.210;2023-05-17T14:15:36;19.80;78.00
40257;DHT22;25977;45.462;9.210;2023-05-17T14:18:04;19.90;77.80
40257;DHT22;25977;45.462;9.210;2023-05-17T14:20:30;19.80;77.50
40257;DHT22;25977;45.462;9.210;2023-05-17T14:22:55;19.80;77.80
40257;DHT22;25977;45.462;9.210;2023-05-17T14:25:21;19.80;77.70
40257;DHT22;25977;45.462;9.210;2023-05-17T14:27:47;19.80;77.80
40257;DHT22;25977;45.462;9.210;2023-05-17T14:30:13;19.80;77.40
40257;DHT22;25977;45.462;9.210;2023-05-17T14:32:39;19.90;77.20
40257;DHT22;25977;45.462;9.210;2023-05-17T14:35:06;19.90;76.20
40257;DHT22;25977;45.462;9.210;2023-05-17T14:37:32;19.80;76.20
40257;DHT22;25977;45.462;9.210;2023-05-17T14:39:57;19.80;76.40
40257;DHT22;25977;45.462;9.210;2023-05-17T14:42:25;19.80;76.80
40257;DHT22;25977;45.462;9.210;2023-05-17T14:44:51;19.80;76.80
40257;DHT22;25977;45.462;9.210;2023-05-17T14:47:17;19.80;76.60
40257;DHT22;25977;45.462;9.210;2023-05-17T14:49:43;19.80;76.60
40257;DHT22;25977;45.462;9.210;2023-05-17T14:52:09;19.80;75.90
40257;DHT22;25977;45.462;9.210;2023-05-17T14:54:35;19.80;75.60
40257;DHT22;25977;45.462;9.210;2023-05-17T14:57:01;19.80;75.30
40257;DHT22;25977;45.462;9.210;2023-05-17T14:59:26;19.80;75.50
40257;DHT22;25977;45.462;9.210;2023-05-17T15:01:52;19.80;75.90
40257;DHT22;25977;45.462;9.210;2023-05-17T15:04:18;19.70;75.60
40257;DHT22;25977;45.462;9.210;2023-05-17T15:06:44;19.70;76.20
40257;DHT22;25977;45.462;9.210;2023-05-17T15:09:10;19.80;76.50
40257;DHT22;25977;45.462;9.210;2023-05-17T15:11:38;19.80;76.60
40257;DHT22;25977;45.462;9.210;2023-05-17T15:14:04;19.90;76.90
40257;DHT22;25977;45.462;9.210;2023-05-17T15:16:34;19.90;76.80
40257;DHT22;25977;45.462;9.210;2023-05-17T15:19:00;19.90;76.80
40257;DHT22;25977;45.462;9.210;2023-05-17T15:21:25;19.90;76.90
40257;DHT22;25977;45.462;9.210;2023-05-17T15:23:51;19.90;76.90
40257;DHT22;25977;45.462;9.210;2023-05-17T15:26:17;19.90;77.00
40257;DHT22;25977;45.462;9.210;2023-05-17T15:28:42;19.90;77.10
40257;DHT22;25977;45.462;9.210;2023-05-17T15:31:08;19.90;77.40
40257;DHT22;25977;45.462;9.210;2023-05-17T15:33:37;19.90;77.80
40257;DHT22;25977;45.462;9.210;2023-05-17T15:36:07;19.90;78.00
40257;DHT22;25977;45.462;9.210;2023-05-17T15:38:32;19.90;77.90
40257;DHT22;25977;45.462;9.210;2023-05-17T15:43:29;19.70;77.30
40257;DHT22;25977;45.462;9.210;2023-05-17T15:45:55;19.60;77.30
40257;DHT22;25977;45.462;9.210;2023-05-17T15:48:21;19.60;77.90
40257;DHT22;25977;45.462;9.210;2023-05-17T15:50:48;19.60;78.00